createdAt,value
2017-07-28T00:00:18.761Z,18.62
2017-07-28T00:01:20.194Z,18.70
2017-07-28T00:02:21.645Z,18.80
2017-07-28T00:03:23.086Z,18.87
2017-07-28T00:04:24.514Z,18.94
2017-07-28T00:05:25.935Z,18.92
2017-07-28T00:06:27.357Z,18.92
2017-07-28T00:07:28.777Z,18.84
2017-07-28T00:08:30.219Z,18.62
2017-07-28T00:09:31.647Z,18.76
2017-07-28T00:10:33.099Z,18.84
2017-07-28T00:11:34.520Z,18.94
2017-07-28T00:12:35.942Z,18.94
2017-07-28T00:13:37.418Z,19.05
2017-07-28T00:14:38.837Z,18.92
2017-07-28T00:15:40.260Z,19.14
2017-07-28T00:16:41.682Z,19.08
2017-07-28T00:17:43.103Z,19.18
2017-07-28T00:18:44.524Z,19.24
2017-07-28T00:19:46.032Z,19.28
2017-07-28T00:20:47.512Z,18.92
2017-07-28T00:21:48.943Z,19.14
2017-07-28T00:22:50.364Z,19.02
2017-07-28T00:23:51.800Z,18.91
2017-07-28T00:24:53.219Z,18.99
2017-07-28T00:25:54.637Z,18.94
2017-07-28T00:26:56.088Z,18.61
2017-07-28T00:27:57.517Z,18.57
2017-07-28T00:28:58.946Z,18.61
2017-07-28T00:30:00.367Z,18.52
2017-07-28T00:31:01.795Z,18.07
2017-07-28T00:32:03.215Z,18.18
2017-07-28T00:33:04.648Z,18.34
2017-07-28T00:34:06.071Z,18.28
2017-07-28T00:35:07.489Z,18.47
2017-07-28T00:36:08.912Z,18.43
2017-07-28T00:37:10.333Z,18.43
2017-07-28T00:38:11.764Z,18.47
2017-07-28T00:39:13.188Z,18.39
2017-07-28T00:40:14.616Z,18.40
2017-07-28T00:41:16.033Z,18.15
2017-07-28T00:42:17.457Z,18.34
2017-07-28T00:43:18.878Z,18.39
2017-07-28T00:44:20.310Z,18.42
2017-07-28T00:45:21.736Z,18.24
2017-07-28T00:46:23.161Z,18.34
2017-07-28T00:47:24.578Z,18.10
2017-07-28T00:48:25.996Z,17.91
2017-07-28T00:49:27.423Z,18.13
2017-07-28T00:50:28.847Z,18.33
2017-07-28T00:51:30.264Z,18.39
2017-07-28T00:52:31.688Z,18.04
2017-07-28T00:53:33.118Z,18.04
2017-07-28T00:54:34.538Z,18.04
2017-07-28T00:55:35.960Z,17.78
2017-07-28T00:56:37.380Z,17.91
2017-07-28T00:57:38.797Z,17.88
2017-07-28T00:58:40.224Z,18.09
2017-07-28T00:59:41.648Z,18.00
2017-07-28T01:00:43.071Z,18.06
2017-07-28T01:01:44.495Z,18.21
2017-07-28T01:02:45.911Z,18.17
2017-07-28T01:03:47.335Z,18.27
2017-07-28T01:04:48.768Z,18.27
2017-07-28T01:05:50.189Z,18.03
2017-07-28T01:06:51.615Z,17.92
2017-07-28T01:07:53.035Z,18.03
2017-07-28T01:08:54.458Z,17.99
2017-07-28T01:09:55.873Z,18.09
2017-07-28T01:10:57.297Z,18.09
2017-07-28T01:11:58.719Z,18.02
2017-07-28T01:13:00.161Z,18.09
2017-07-28T01:14:01.572Z,17.94
2017-07-28T01:15:02.995Z,17.89
2017-07-28T01:16:04.428Z,17.73
2017-07-28T01:17:05.960Z,17.62
2017-07-28T01:18:07.388Z,17.57
2017-07-28T01:19:08.806Z,17.55
2017-07-28T01:20:10.229Z,17.41
2017-07-28T01:21:11.706Z,17.53
2017-07-28T01:22:13.130Z,17.44
2017-07-28T01:23:14.552Z,17.71
2017-07-28T01:24:15.978Z,17.70
2017-07-28T01:25:17.475Z,17.79
2017-07-28T01:26:18.900Z,17.69
2017-07-28T01:27:20.319Z,17.73
2017-07-28T01:28:21.746Z,17.71
2017-07-28T01:29:23.169Z,17.55
2017-07-28T01:30:24.594Z,17.63
2017-07-28T01:31:26.014Z,17.54
2017-07-28T01:32:27.439Z,17.63
2017-07-28T01:33:28.862Z,17.36
2017-07-28T01:34:30.298Z,17.66
2017-07-28T01:35:32.349Z,17.70
2017-07-28T01:36:33.774Z,17.94
2017-07-28T01:37:35.194Z,17.89
2017-07-28T01:38:36.615Z,17.88
2017-07-28T01:39:38.037Z,17.92
2017-07-28T01:40:39.455Z,17.76
2017-07-28T01:41:40.876Z,17.85
2017-07-28T01:42:42.300Z,17.63
2017-07-28T01:43:43.723Z,17.70
2017-07-28T01:44:45.145Z,17.70
2017-07-28T01:45:46.564Z,17.73
2017-07-28T01:46:47.985Z,17.59
2017-07-28T01:47:49.407Z,17.54
2017-07-28T01:48:50.833Z,17.53
2017-07-28T01:49:52.256Z,17.43
2017-07-28T01:50:53.678Z,17.43
2017-07-28T01:51:55.103Z,17.54
2017-07-28T01:52:56.522Z,17.40
2017-07-28T01:53:57.951Z,17.50
2017-07-28T01:54:59.369Z,17.59
2017-07-28T01:56:00.792Z,17.67
2017-07-28T01:57:02.218Z,17.69
2017-07-28T01:58:03.711Z,17.53
2017-07-28T01:59:05.148Z,17.55
2017-07-28T02:00:06.580Z,17.46
2017-07-28T02:01:08.039Z,17.41
2017-07-28T02:02:09.470Z,17.46
2017-07-28T02:03:10.888Z,17.32
2017-07-28T02:04:12.308Z,17.40
2017-07-28T02:05:13.735Z,17.53
2017-07-28T02:06:15.156Z,17.63
2017-07-28T02:07:16.577Z,17.59
2017-07-28T02:08:18.002Z,17.53
2017-07-28T02:09:19.432Z,17.64
2017-07-28T02:10:20.847Z,17.62
2017-07-28T02:11:22.267Z,17.62
2017-07-28T02:12:23.688Z,17.70
2017-07-28T02:13:25.117Z,17.73
2017-07-28T02:14:26.534Z,17.67
2017-07-28T02:15:27.956Z,17.73
2017-07-28T02:16:29.378Z,17.43
2017-07-28T02:17:30.801Z,17.44
2017-07-28T02:18:32.228Z,17.30
2017-07-28T02:19:33.647Z,17.41
2017-07-28T02:20:35.066Z,17.35
2017-07-28T02:21:36.488Z,17.38
2017-07-28T02:22:37.904Z,17.33
2017-07-28T02:23:39.328Z,17.44
2017-07-28T02:24:40.759Z,17.36
2017-07-28T02:25:42.186Z,17.43
2017-07-28T02:26:43.610Z,17.44
2017-07-28T02:27:45.022Z,17.13
2017-07-28T02:28:46.453Z,17.10
2017-07-28T02:29:47.878Z,17.04
2017-07-28T02:30:49.301Z,16.98
2017-07-28T02:31:50.727Z,17.13
2017-07-28T02:32:52.146Z,17.25
2017-07-28T02:33:53.581Z,17.04
2017-07-28T02:34:54.998Z,17.22
2017-07-28T02:35:56.426Z,17.22
2017-07-28T02:36:57.855Z,17.14
2017-07-28T02:37:59.275Z,17.11
2017-07-28T02:39:00.696Z,17.20
2017-07-28T02:40:02.115Z,17.18
2017-07-28T02:41:03.539Z,17.23
2017-07-28T02:42:04.960Z,17.07
2017-07-28T02:43:06.388Z,17.22
2017-07-28T02:44:07.808Z,16.96
2017-07-28T02:45:09.231Z,16.90
2017-07-28T02:46:10.650Z,17.11
2017-07-28T02:47:12.075Z,16.77
2017-07-28T02:48:13.502Z,16.83
2017-07-28T02:49:14.929Z,16.93
2017-07-28T02:50:16.355Z,16.77
2017-07-28T02:51:17.774Z,16.96
2017-07-28T02:52:19.194Z,16.81
2017-07-28T02:53:20.615Z,16.96
2017-07-28T02:54:22.160Z,16.92
2017-07-28T02:55:23.614Z,17.06
2017-07-28T02:56:25.035Z,17.04
2017-07-28T02:57:26.455Z,16.92
2017-07-28T02:58:27.887Z,16.75
2017-07-28T02:59:29.306Z,16.68
2017-07-28T03:00:30.728Z,16.60
2017-07-28T03:01:32.194Z,16.88
2017-07-28T03:02:33.621Z,16.71
2017-07-28T03:03:35.044Z,16.73
2017-07-28T03:04:36.468Z,16.78
2017-07-28T03:05:37.892Z,16.85
2017-07-28T03:06:39.319Z,16.93
2017-07-28T03:07:40.737Z,16.83
2017-07-28T03:08:42.160Z,16.93
2017-07-28T03:09:43.572Z,16.83
2017-07-28T03:10:44.995Z,16.62
2017-07-28T03:11:46.420Z,16.48
2017-07-28T03:12:47.839Z,16.35
2017-07-28T03:13:49.266Z,16.40
2017-07-28T03:14:50.686Z,16.33
2017-07-28T03:15:52.105Z,16.30
2017-07-28T03:16:53.530Z,16.20
2017-07-28T03:17:54.944Z,16.22
2017-07-28T03:18:56.365Z,16.30
2017-07-28T03:19:57.795Z,16.31
2017-07-28T03:20:59.217Z,15.99
2017-07-28T03:22:00.640Z,16.27
2017-07-28T03:23:02.061Z,16.01
2017-07-28T03:24:03.481Z,16.14
2017-07-28T03:25:04.902Z,16.14
2017-07-28T03:26:06.326Z,16.01
2017-07-28T03:27:07.747Z,15.96
2017-07-28T03:28:09.163Z,15.96
2017-07-28T03:29:10.590Z,15.97
2017-07-28T03:30:12.012Z,15.99
2017-07-28T03:31:13.434Z,15.99
2017-07-28T03:32:14.857Z,15.99
2017-07-28T03:33:16.275Z,15.85
2017-07-28T03:34:17.697Z,15.88
2017-07-28T03:35:19.117Z,15.99
2017-07-28T03:36:20.548Z,16.01
2017-07-28T03:37:21.963Z,15.81
2017-07-28T03:38:23.386Z,15.96
2017-07-28T03:39:24.814Z,15.96
2017-07-28T03:40:26.234Z,15.97
2017-07-28T03:41:27.652Z,16.00
2017-07-28T03:42:29.083Z,15.89
2017-07-28T03:43:30.509Z,16.20
2017-07-28T03:44:31.936Z,16.15
2017-07-28T03:45:33.360Z,15.94
2017-07-28T03:46:34.789Z,16.06
2017-07-28T03:47:36.213Z,16.23
2017-07-28T03:48:37.732Z,16.18
2017-07-28T03:49:39.151Z,16.16
2017-07-28T03:50:40.575Z,16.12
2017-07-28T03:51:41.999Z,16.03
2017-07-28T03:52:43.429Z,15.96
2017-07-28T03:53:44.844Z,15.96
2017-07-28T03:54:46.288Z,16.27
2017-07-28T03:55:47.685Z,16.52
2017-07-28T03:56:49.113Z,16.44
2017-07-28T03:57:50.531Z,16.48
2017-07-28T03:58:51.960Z,16.45
2017-07-28T03:59:53.384Z,16.30
2017-07-28T04:00:54.806Z,16.34
2017-07-28T04:01:56.225Z,16.37
2017-07-28T04:02:57.648Z,16.48
2017-07-28T04:03:59.080Z,16.60
2017-07-28T04:05:00.504Z,16.58
2017-07-28T04:06:01.928Z,16.53
2017-07-28T04:07:03.349Z,16.50
2017-07-28T04:08:04.764Z,16.62
2017-07-28T04:09:06.195Z,16.67
2017-07-28T04:10:07.618Z,16.85
2017-07-28T04:11:09.041Z,16.92
2017-07-28T04:12:10.465Z,16.78
2017-07-28T04:13:11.901Z,16.71
2017-07-28T04:14:13.327Z,16.85
2017-07-28T04:15:14.747Z,16.60
2017-07-28T04:16:16.172Z,16.70
2017-07-28T04:17:17.596Z,16.65
2017-07-28T04:18:19.021Z,16.81
2017-07-28T04:19:20.450Z,16.60
2017-07-28T04:20:21.880Z,16.59
2017-07-28T04:21:23.307Z,16.63
2017-07-28T04:22:25.490Z,16.90
2017-07-28T04:23:26.932Z,16.88
2017-07-28T04:24:28.350Z,16.58
2017-07-28T04:25:29.778Z,16.86
2017-07-28T04:26:31.199Z,16.70
2017-07-28T04:27:32.624Z,16.85
2017-07-28T04:28:34.054Z,16.85
2017-07-28T04:29:35.469Z,16.96
2017-07-28T04:30:36.896Z,16.80
2017-07-28T04:31:38.319Z,16.83
2017-07-28T04:32:39.747Z,16.80
2017-07-28T04:33:41.164Z,16.95
2017-07-28T04:34:42.598Z,17.04
2017-07-28T04:35:44.163Z,17.06
2017-07-28T04:36:45.609Z,17.11
2017-07-28T04:37:47.035Z,17.23
2017-07-28T04:38:48.468Z,17.11
2017-07-28T04:39:49.893Z,17.07
2017-07-28T04:40:51.318Z,17.33
2017-07-28T04:41:52.750Z,17.20
2017-07-28T04:42:54.205Z,17.15
2017-07-28T04:43:55.630Z,17.35
2017-07-28T04:44:57.055Z,17.40
2017-07-28T04:45:58.491Z,17.47
2017-07-28T04:46:59.915Z,17.63
2017-07-28T04:48:01.343Z,17.55
2017-07-28T04:49:02.766Z,17.63
2017-07-28T04:50:04.190Z,17.54
2017-07-28T04:51:05.617Z,17.40
2017-07-28T04:52:07.036Z,17.59
2017-07-28T04:53:08.465Z,17.50
2017-07-28T04:54:09.889Z,17.48
2017-07-28T04:55:11.314Z,17.43
2017-07-28T04:56:12.747Z,17.43
2017-07-28T04:57:14.174Z,17.47
2017-07-28T04:58:15.597Z,17.66
2017-07-28T04:59:17.020Z,17.59
2017-07-28T05:00:18.448Z,17.54
2017-07-28T05:01:19.873Z,17.51
2017-07-28T05:02:22.031Z,17.67
2017-07-28T05:03:23.446Z,17.50
2017-07-28T05:04:24.875Z,17.57
2017-07-28T05:05:26.295Z,17.51
2017-07-28T05:06:28.600Z,17.69
2017-07-28T05:07:30.030Z,17.48
2017-07-28T05:08:31.461Z,17.59
2017-07-28T05:09:32.883Z,17.54
2017-07-28T05:10:34.348Z,17.55
2017-07-28T05:11:35.776Z,17.59
2017-07-28T05:12:37.201Z,17.76
2017-07-28T05:13:38.630Z,17.76
2017-07-28T05:14:40.055Z,17.76
2017-07-28T05:15:42.090Z,17.70
2017-07-28T05:16:43.520Z,17.76
2017-07-28T05:17:44.950Z,17.79
2017-07-28T05:18:46.378Z,17.78
2017-07-28T05:19:47.808Z,17.82
2017-07-28T05:20:49.236Z,17.89
2017-07-28T05:21:50.664Z,17.99
2017-07-28T05:22:52.094Z,17.92
2017-07-28T05:23:53.513Z,17.91
2017-07-28T05:24:54.941Z,17.78
2017-07-28T05:25:56.370Z,17.70
2017-07-28T05:26:57.793Z,17.74
2017-07-28T05:27:59.216Z,17.87
2017-07-28T05:29:00.642Z,18.04
2017-07-28T05:30:02.078Z,17.87
2017-07-28T05:31:03.492Z,17.95
2017-07-28T05:32:04.924Z,17.74
2017-07-28T05:33:06.350Z,18.00
2017-07-28T05:34:07.774Z,17.92
2017-07-28T05:35:09.195Z,17.78
2017-07-28T05:36:10.618Z,17.74
2017-07-28T05:37:12.043Z,17.70
2017-07-28T05:38:13.481Z,17.89
2017-07-28T05:39:14.903Z,17.81
2017-07-28T05:40:16.323Z,17.91
2017-07-28T05:41:17.753Z,17.70
2017-07-28T05:42:19.183Z,17.95
2017-07-28T05:43:21.440Z,18.02
2017-07-28T05:44:22.867Z,18.04
2017-07-28T05:45:24.294Z,17.89
2017-07-28T05:46:25.720Z,18.03
2017-07-28T05:47:27.142Z,18.13
2017-07-28T05:48:28.567Z,18.13
2017-07-28T05:49:29.999Z,18.12
2017-07-28T05:50:31.430Z,18.10
2017-07-28T05:51:32.861Z,18.00
2017-07-28T05:52:34.290Z,18.17
2017-07-28T05:53:35.720Z,18.17
2017-07-28T05:54:37.143Z,18.15
2017-07-28T05:55:38.565Z,18.09
2017-07-28T05:56:39.996Z,18.24
2017-07-28T05:57:42.151Z,18.18
2017-07-28T05:58:43.590Z,18.00
2017-07-28T05:59:45.014Z,18.04
2017-07-28T06:00:46.440Z,18.13
2017-07-28T06:01:47.868Z,18.17
2017-07-28T06:02:49.296Z,18.13
2017-07-28T06:03:50.718Z,18.17
2017-07-28T06:04:52.150Z,18.06
2017-07-28T06:05:53.587Z,18.13
2017-07-28T06:06:55.002Z,18.07
2017-07-28T06:07:56.426Z,18.31
2017-07-28T06:08:57.866Z,18.12
2017-07-28T06:09:59.288Z,18.13
2017-07-28T06:11:00.710Z,18.21
2017-07-28T06:12:02.141Z,18.13
2017-07-28T06:13:03.562Z,18.31
2017-07-28T06:14:04.990Z,18.12
2017-07-28T06:15:06.416Z,18.17
2017-07-28T06:16:07.846Z,18.57
2017-07-28T06:17:09.275Z,18.40
2017-07-28T06:18:10.708Z,18.29
2017-07-28T06:19:12.132Z,18.22
2017-07-28T06:20:13.567Z,18.25
2017-07-28T06:21:15.001Z,18.37
2017-07-28T06:22:16.431Z,18.28
2017-07-28T06:23:18.628Z,18.31
2017-07-28T06:24:20.037Z,18.43
2017-07-28T06:25:21.461Z,18.39
2017-07-28T06:26:22.891Z,18.43
2017-07-28T06:27:24.315Z,18.29
2017-07-28T06:28:25.761Z,18.49
2017-07-28T06:29:27.193Z,18.34
2017-07-28T06:30:28.616Z,18.50
2017-07-28T06:31:30.039Z,18.49
2017-07-28T06:32:31.466Z,18.34
2017-07-28T06:33:32.893Z,18.42
2017-07-28T06:34:34.322Z,18.55
2017-07-28T06:35:35.759Z,18.55
2017-07-28T06:36:37.182Z,18.40
2017-07-28T06:37:38.609Z,18.42
2017-07-28T06:38:40.043Z,18.55
2017-07-28T06:39:41.469Z,18.52
2017-07-28T06:40:42.897Z,18.57
2017-07-28T06:41:44.321Z,18.79
2017-07-28T06:42:45.747Z,18.79
2017-07-28T06:43:47.177Z,18.87
2017-07-28T06:44:48.597Z,18.91
2017-07-28T06:45:50.020Z,18.91
2017-07-28T06:46:51.444Z,18.87
2017-07-28T06:47:52.869Z,18.74
2017-07-28T06:48:54.329Z,18.87
2017-07-28T06:49:55.786Z,18.73
2017-07-28T06:50:57.211Z,18.79
2017-07-28T06:51:58.642Z,18.74
2017-07-28T06:53:00.068Z,18.86
2017-07-28T06:54:01.499Z,19.01
2017-07-28T06:55:02.934Z,18.79
2017-07-28T06:56:04.368Z,18.80
2017-07-28T06:57:05.797Z,18.92
2017-07-28T06:58:07.223Z,18.94
2017-07-28T06:59:08.652Z,18.91
2017-07-28T07:00:10.081Z,18.67
2017-07-28T07:01:11.500Z,18.73
2017-07-28T07:02:12.932Z,18.82
2017-07-28T07:03:14.363Z,18.64
2017-07-28T07:04:15.798Z,18.92
2017-07-28T07:05:17.233Z,18.94
2017-07-28T07:06:18.658Z,18.99
2017-07-28T07:07:20.100Z,18.91
2017-07-28T07:08:21.529Z,18.87
2017-07-28T07:09:22.961Z,18.95
2017-07-28T07:10:24.391Z,18.92
2017-07-28T07:11:25.825Z,19.06
2017-07-28T07:12:27.259Z,19.05
2017-07-28T07:13:28.696Z,18.91
2017-07-28T07:14:30.122Z,19.13
2017-07-28T07:15:31.555Z,19.23
2017-07-28T07:16:32.981Z,19.14
2017-07-28T07:17:34.410Z,19.01
2017-07-28T07:18:35.840Z,19.14
2017-07-28T07:19:37.267Z,19.21
2017-07-28T07:20:38.693Z,19.14
2017-07-28T07:21:40.122Z,19.13
2017-07-28T07:22:41.556Z,19.38
2017-07-28T07:23:42.978Z,19.39
2017-07-28T07:24:44.411Z,19.53
2017-07-28T07:25:45.842Z,19.42
2017-07-28T07:26:47.272Z,19.53
2017-07-28T07:27:48.702Z,19.69
2017-07-28T07:28:50.133Z,19.29
2017-07-28T07:29:51.562Z,19.50
2017-07-28T07:30:53.002Z,19.53
2017-07-28T07:31:54.433Z,19.53
2017-07-28T07:32:55.953Z,19.54
2017-07-28T07:33:57.383Z,19.63
2017-07-28T07:34:58.821Z,19.73
2017-07-28T07:36:00.252Z,19.73
2017-07-28T07:37:01.682Z,19.70
2017-07-28T07:38:03.115Z,19.66
2017-07-28T07:39:04.553Z,19.86
2017-07-28T07:40:05.990Z,19.90
2017-07-28T07:41:07.477Z,20.12
2017-07-28T07:42:08.901Z,19.95
2017-07-28T07:43:10.330Z,19.86
2017-07-28T07:44:11.772Z,19.87
2017-07-28T07:45:13.201Z,19.84
2017-07-28T07:46:14.629Z,19.94
2017-07-28T07:47:16.063Z,19.84
2017-07-28T07:48:17.497Z,19.65
2017-07-28T07:49:18.927Z,19.70
2017-07-28T07:50:20.369Z,19.83
2017-07-28T07:51:21.797Z,20.03
2017-07-28T07:52:23.223Z,20.12
2017-07-28T07:53:24.654Z,20.21
2017-07-28T07:54:26.083Z,20.25
2017-07-28T07:55:27.504Z,20.27
2017-07-28T07:56:28.950Z,20.06
2017-07-28T07:57:30.379Z,20.27
2017-07-28T07:58:31.812Z,20.34
2017-07-28T07:59:33.240Z,20.18
2017-07-28T08:00:34.677Z,20.25
2017-07-28T08:01:36.102Z,20.39
2017-07-28T08:02:37.538Z,20.24
2017-07-28T08:03:38.959Z,20.28
2017-07-28T08:04:40.392Z,20.30
2017-07-28T08:05:43.347Z,20.08
2017-07-28T08:06:46.317Z,20.33
2017-07-28T08:07:47.743Z,20.35
2017-07-28T08:08:49.173Z,20.53
2017-07-28T08:09:50.597Z,20.39
2017-07-28T08:10:52.029Z,20.35
2017-07-28T08:11:53.460Z,20.49
2017-07-28T08:12:54.884Z,20.58
2017-07-28T08:13:56.327Z,20.69
2017-07-28T08:14:57.743Z,20.68
2017-07-28T08:15:59.172Z,20.76
2017-07-28T08:17:00.603Z,20.71
2017-07-28T08:18:02.044Z,20.65
2017-07-28T08:19:03.472Z,20.77
2017-07-28T08:20:04.909Z,20.93
2017-07-28T08:21:06.339Z,20.84
2017-07-28T08:22:07.776Z,20.51
2017-07-28T08:23:09.200Z,20.61
2017-07-28T08:24:10.629Z,20.56
2017-07-28T08:25:12.063Z,20.69
2017-07-28T08:26:13.504Z,20.80
2017-07-28T08:27:14.934Z,20.65
2017-07-28T08:28:16.360Z,20.66
2017-07-28T08:29:17.791Z,20.79
2017-07-28T08:30:19.238Z,20.65
2017-07-28T08:31:20.671Z,20.64
2017-07-28T08:32:22.105Z,20.84
2017-07-28T08:33:23.535Z,20.90
2017-07-28T08:34:24.966Z,21.02
2017-07-28T08:35:26.396Z,20.91
2017-07-28T08:36:27.829Z,21.01
2017-07-28T08:37:29.272Z,20.96
2017-07-28T08:38:30.701Z,20.86
2017-07-28T08:39:32.124Z,20.86
2017-07-28T08:40:33.552Z,20.84
2017-07-28T08:41:34.992Z,21.02
2017-07-28T08:42:36.422Z,21.20
2017-07-28T08:43:37.858Z,21.09
2017-07-28T08:44:39.283Z,21.01
2017-07-28T08:45:40.714Z,20.74
2017-07-28T08:46:42.142Z,20.66
2017-07-28T08:47:43.575Z,20.77
2017-07-28T08:48:44.997Z,20.72
2017-07-28T08:49:46.435Z,20.66
2017-07-28T08:50:47.860Z,20.71
2017-07-28T08:51:49.295Z,21.05
2017-07-28T08:52:50.725Z,21.11
2017-07-28T08:53:52.154Z,21.23
2017-07-28T08:54:53.581Z,21.38
2017-07-28T08:55:55.018Z,21.29
2017-07-28T08:56:56.442Z,21.56
2017-07-28T08:57:57.866Z,21.69
2017-07-28T08:58:59.302Z,21.53
2017-07-28T09:00:00.742Z,21.75
2017-07-28T09:01:02.170Z,21.46
2017-07-28T09:02:03.601Z,21.44
2017-07-28T09:03:05.030Z,21.48
2017-07-28T09:04:06.462Z,21.19
2017-07-28T09:05:07.887Z,21.19
2017-07-28T09:06:09.319Z,20.96
2017-07-28T09:07:10.757Z,20.93
2017-07-28T09:08:12.183Z,20.90
2017-07-28T09:09:13.625Z,20.95
2017-07-28T09:10:15.052Z,20.77
2017-07-28T09:11:16.482Z,20.99
2017-07-28T09:12:17.917Z,21.02
2017-07-28T09:13:19.412Z,20.89
2017-07-28T09:14:20.843Z,20.89
2017-07-28T09:15:22.274Z,21.04
2017-07-28T09:16:23.704Z,20.90
2017-07-28T09:17:25.137Z,21.09
2017-07-28T09:18:26.561Z,20.98
2017-07-28T09:19:27.999Z,21.09
2017-07-28T09:20:29.570Z,21.05
2017-07-28T09:21:31.010Z,21.34
2017-07-28T09:22:32.441Z,21.13
2017-07-28T09:23:33.876Z,21.29
2017-07-28T09:24:35.305Z,21.16
2017-07-28T09:25:36.732Z,21.32
2017-07-28T09:26:38.194Z,21.35
2017-07-28T09:27:39.636Z,21.41
2017-07-28T09:28:41.063Z,21.35
2017-07-28T09:29:42.487Z,21.27
2017-07-28T09:30:43.928Z,21.01
2017-07-28T09:31:45.346Z,20.84
2017-07-28T09:32:46.793Z,20.66
2017-07-28T09:33:48.227Z,20.93
2017-07-28T09:34:49.671Z,20.87
2017-07-28T09:35:51.100Z,21.08
2017-07-28T09:36:52.531Z,21.24
2017-07-28T09:37:53.973Z,21.44
2017-07-28T09:38:55.420Z,21.48
2017-07-28T09:39:57.168Z,21.81
2017-07-28T09:40:58.594Z,21.79
2017-07-28T09:42:00.027Z,21.48
2017-07-28T09:43:01.476Z,21.42
2017-07-28T09:44:02.903Z,21.44
2017-07-28T09:45:04.337Z,21.51
2017-07-28T09:46:05.762Z,21.45
2017-07-28T09:47:07.200Z,21.41
2017-07-28T09:48:08.638Z,21.67
2017-07-28T09:49:10.067Z,21.72
2017-07-28T09:50:11.497Z,21.56
2017-07-28T09:51:12.933Z,21.64
2017-07-28T09:52:14.366Z,21.61
2017-07-28T09:53:15.796Z,21.56
2017-07-28T09:54:17.239Z,21.44
2017-07-28T09:55:18.668Z,21.30
2017-07-28T09:56:20.103Z,21.59
2017-07-28T09:57:21.542Z,21.76
2017-07-28T09:58:23.841Z,21.78
2017-07-28T09:59:25.284Z,21.78
2017-07-28T10:00:26.711Z,22.16
2017-07-28T10:01:28.147Z,22.27
2017-07-28T10:02:29.577Z,22.16
2017-07-28T10:03:31.008Z,22.39
2017-07-28T10:04:32.445Z,22.50
2017-07-28T10:05:33.886Z,22.64
2017-07-28T10:06:35.324Z,22.46
2017-07-28T10:07:36.756Z,22.69
2017-07-28T10:08:38.199Z,22.90
2017-07-28T10:09:39.625Z,23.11
2017-07-28T10:10:41.061Z,23.05
2017-07-28T10:11:42.490Z,23.20
2017-07-28T10:12:43.923Z,23.35
2017-07-28T10:13:45.357Z,23.46
2017-07-28T10:14:46.784Z,23.24
2017-07-28T10:15:48.231Z,23.64
2017-07-28T10:16:49.653Z,23.32
2017-07-28T10:17:51.086Z,23.01
2017-07-28T10:18:52.519Z,22.96
2017-07-28T10:19:53.951Z,23.01
2017-07-28T10:20:55.387Z,22.87
2017-07-28T10:21:56.818Z,22.83
2017-07-28T10:22:58.263Z,22.89
2017-07-28T10:23:59.690Z,23.29
2017-07-28T10:25:01.126Z,22.87
2017-07-28T10:26:02.564Z,22.56
2017-07-28T10:27:04.002Z,22.53
2017-07-28T10:28:05.433Z,22.25
2017-07-28T10:29:06.866Z,22.12
2017-07-28T10:30:08.298Z,21.98
2017-07-28T10:31:09.728Z,21.99
2017-07-28T10:32:11.160Z,21.97
2017-07-28T10:33:12.600Z,22.09
2017-07-28T10:34:14.031Z,22.06
2017-07-28T10:35:15.471Z,22.37
2017-07-28T10:36:16.908Z,22.53
2017-07-28T10:37:18.346Z,22.52
2017-07-28T10:38:19.773Z,22.74
2017-07-28T10:39:21.208Z,22.92
2017-07-28T10:40:22.644Z,23.24
2017-07-28T10:41:27.073Z,23.15
2017-07-28T10:42:28.539Z,23.43
2017-07-28T10:43:29.971Z,23.47
2017-07-28T10:44:31.405Z,23.23
2017-07-28T10:45:32.844Z,23.71
2017-07-28T10:46:34.278Z,23.60
2017-07-28T10:47:35.702Z,23.12
2017-07-28T10:48:37.136Z,22.72
2017-07-28T10:49:38.583Z,22.80
2017-07-28T10:50:40.029Z,23.09
2017-07-28T10:51:41.444Z,23.55
2017-07-28T10:52:42.872Z,23.50
2017-07-28T10:53:44.316Z,23.27
2017-07-28T10:54:45.748Z,23.65
2017-07-28T10:55:47.177Z,23.82
2017-07-28T10:56:48.608Z,23.90
2017-07-28T10:57:50.038Z,23.87
2017-07-28T10:58:51.473Z,24.00
2017-07-28T10:59:52.900Z,24.41
2017-07-28T11:00:54.332Z,24.32
2017-07-28T11:01:55.765Z,23.83
2017-07-28T11:02:57.201Z,23.23
2017-07-28T11:03:58.639Z,23.15
2017-07-28T11:05:00.066Z,23.27
2017-07-28T11:06:01.503Z,23.23
2017-07-28T11:07:02.935Z,23.27
2017-07-28T11:08:04.363Z,22.87
2017-07-28T11:09:05.807Z,22.92
2017-07-28T11:10:07.235Z,22.83
2017-07-28T11:11:08.664Z,22.64
2017-07-28T11:12:10.097Z,22.54
2017-07-28T11:13:11.531Z,22.53
2017-07-28T11:14:12.971Z,22.52
2017-07-28T11:15:14.407Z,22.43
2017-07-28T11:16:15.830Z,22.37
2017-07-28T11:17:17.269Z,22.04
2017-07-28T11:18:18.692Z,21.99
2017-07-28T11:19:20.121Z,21.81
2017-07-28T11:20:21.552Z,21.76
2017-07-28T11:21:22.993Z,21.87
2017-07-28T11:22:24.421Z,21.76
2017-07-28T11:23:25.857Z,21.53
2017-07-28T11:24:27.284Z,21.42
2017-07-28T11:25:28.712Z,21.39
2017-07-28T11:26:30.140Z,21.45
2017-07-28T11:27:31.570Z,21.61
2017-07-28T11:28:33.005Z,21.66
2017-07-28T11:29:34.431Z,21.87
2017-07-28T11:30:35.861Z,21.79
2017-07-28T11:31:37.294Z,22.12
2017-07-28T11:32:38.725Z,22.09
2017-07-28T11:33:40.161Z,22.28
2017-07-28T11:34:41.589Z,22.31
2017-07-28T11:35:43.029Z,22.41
2017-07-28T11:36:44.456Z,22.43
2017-07-28T11:37:45.900Z,22.39
2017-07-28T11:38:47.336Z,22.41
2017-07-28T11:39:48.771Z,22.22
2017-07-28T11:40:50.203Z,22.32
2017-07-28T11:41:51.648Z,22.31
2017-07-28T11:42:53.083Z,22.19
2017-07-28T11:43:54.526Z,22.27
2017-07-28T11:44:56.053Z,22.34
2017-07-28T11:45:57.490Z,22.47
2017-07-28T11:46:58.921Z,22.25
2017-07-28T11:48:00.356Z,22.22
2017-07-28T11:49:01.788Z,22.28
2017-07-28T11:50:03.225Z,22.32
2017-07-28T11:51:04.653Z,22.31
2017-07-28T11:52:06.084Z,22.32
2017-07-28T11:53:07.522Z,22.28
2017-07-28T11:54:08.962Z,22.28
2017-07-28T11:55:10.392Z,22.12
2017-07-28T11:56:11.910Z,21.81
2017-07-28T11:57:13.345Z,21.76
2017-07-28T11:58:14.776Z,21.82
2017-07-28T11:59:16.222Z,21.74
2017-07-28T12:00:17.661Z,21.66
2017-07-28T12:01:19.092Z,21.61
2017-07-28T12:02:20.522Z,21.54
2017-07-28T12:03:21.954Z,21.69
2017-07-28T12:04:23.391Z,22.09
2017-07-28T12:05:24.823Z,22.50
2017-07-28T12:06:26.257Z,22.78
2017-07-28T12:07:27.690Z,22.92
2017-07-28T12:08:29.135Z,23.05
2017-07-28T12:09:30.561Z,23.39
2017-07-28T12:10:31.998Z,23.83
2017-07-28T12:11:33.432Z,24.27
2017-07-28T12:12:34.864Z,24.45
2017-07-28T12:13:36.300Z,24.32
2017-07-28T12:14:37.751Z,24.31
2017-07-28T12:15:39.189Z,24.19
2017-07-28T12:16:40.634Z,24.14
2017-07-28T12:17:42.072Z,24.52
2017-07-28T12:18:43.510Z,24.79
2017-07-28T12:19:44.936Z,24.69
2017-07-28T12:20:46.365Z,24.90
2017-07-28T12:21:47.799Z,24.87
2017-07-28T12:22:49.231Z,25.07
2017-07-28T12:23:50.665Z,24.98
2017-07-28T12:24:52.093Z,25.07
2017-07-28T12:25:53.527Z,25.27
2017-07-28T12:26:54.968Z,25.54
2017-07-28T12:27:56.403Z,25.25
2017-07-28T12:28:57.840Z,25.24
2017-07-28T12:29:59.271Z,25.35
2017-07-28T12:31:00.722Z,25.27
2017-07-28T12:32:02.152Z,24.98
2017-07-28T12:33:03.591Z,24.76
2017-07-28T12:34:05.027Z,24.68
2017-07-28T12:35:06.461Z,24.94
2017-07-28T12:36:07.887Z,24.79
2017-07-28T12:37:09.329Z,24.42
2017-07-28T12:38:10.755Z,24.34
2017-07-28T12:39:12.199Z,24.35
2017-07-28T12:40:13.636Z,23.97
2017-07-28T12:41:15.075Z,23.77
2017-07-28T12:42:16.514Z,24.17
2017-07-28T12:43:17.955Z,24.60
2017-07-28T12:44:19.390Z,24.82
2017-07-28T12:45:20.820Z,24.76
2017-07-28T12:46:22.260Z,24.34
2017-07-28T12:47:23.694Z,23.87
2017-07-28T12:48:25.136Z,23.75
2017-07-28T12:49:26.566Z,23.75
2017-07-28T12:50:28.005Z,24.00
2017-07-28T12:51:29.443Z,24.13
2017-07-28T12:52:30.866Z,24.44
2017-07-28T12:53:32.305Z,24.53
2017-07-28T12:54:33.750Z,24.76
2017-07-28T12:55:35.188Z,24.88
2017-07-28T12:56:36.631Z,24.45
2017-07-28T12:57:38.065Z,24.05
2017-07-28T12:58:39.504Z,23.89
2017-07-28T12:59:41.550Z,23.72
2017-07-28T13:00:42.995Z,23.49
2017-07-28T13:01:44.953Z,23.55
2017-07-28T13:02:46.384Z,23.40
2017-07-28T13:03:47.834Z,23.12
2017-07-28T13:04:49.256Z,22.90
2017-07-28T13:05:50.693Z,22.77
2017-07-28T13:06:52.134Z,22.90
2017-07-28T13:07:53.584Z,22.78
2017-07-28T13:08:55.012Z,22.47
2017-07-28T13:09:56.453Z,22.41
2017-07-28T13:10:57.899Z,22.39